.
WxDataArchive / Data Records for 2011-01-11
2011-01-10 January 2011 2011-01-12

Data Records for Tuesday, 11 January 2011

Time	Temp	Chill	HIndex	Humid	Dewpt	 Wind 	HiWind	WindDir	Rain 	Barom 
-----	----	-----	------	-----	-----	------	------	-------	-----	----- 
00:00	21.1	21.1	21.1	78	15.3	2	5	90	0.00	30.324 
00:05	21.1	21.1	21.1	79	15.6	1	4	90	0.00	30.324 
00:10	21.1	21.1	21.1	79	15.6	1	4	90	0.00	30.324 
00:15	21.1	21.1	21.1	79	15.6	1	4	90	0.00	30.314 
00:20	21.1	21.1	21.1	79	15.6	2	4	90	0.00	30.314 
00:25	21.1	21.1	21.1	80	15.9	2	6	90	0.00	30.314 
00:30	21.1	21.1	21.1	80	15.9	2	4	90	0.00	30.303 
00:35	21.3	21.3	21.3	80	16.1	2	6	90	0.00	30.303 
00:40	21.3	21.3	21.3	80	16.1	1	3	90	0.00	30.303 
00:45	21.3	21.3	21.3	80	16.1	1	4	90	0.00	30.301 
00:50	21.3	21.3	21.3	81	16.4	1	3	90	0.00	30.301 
00:55	21.3	21.3	21.3	81	16.4	1	4	90	0.00	30.301 
01:00	21.3	21.3	21.3	81	16.4	2	4	90	0.00	30.296 
01:05	21.4	21.4	21.4	81	16.5	2	4	90	0.00	30.296 
01:10	21.4	21.4	21.4	81	16.5	2	5	90	0.00	30.296 
01:15	21.4	21.4	21.4	81	16.5	2	4	90	0.00	30.289 
01:20	21.4	21.4	21.4	81	16.5	1	3	90	0.00	30.289 
01:25	21.4	21.4	21.4	81	16.5	2	5	90	0.00	30.289 
01:30	21.4	21.4	21.4	81	16.5	2	6	90	0.00	30.281 
01:35	21.4	21.4	21.4	81	16.5	2	4	90	0.00	30.281 
01:40	21.4	21.4	21.4	81	16.5	2	5	90	0.00	30.281 
01:45	21.6	21.6	21.6	81	16.7	2	5	90	0.00	30.278 
01:50	21.6	21.6	21.6	81	16.7	1	5	90	0.00	30.278 
01:55	21.6	21.6	21.6	81	16.7	2	6	90	0.00	30.278 
02:00	21.6	21.6	21.6	81	16.7	1	4	112	0.00	30.277 
02:05	21.8	21.8	21.8	81	16.9	1	4	112	0.00	30.277 
02:10	21.8	21.8	21.8	81	16.9	2	4	90	0.00	30.277 
02:15	21.9	21.9	21.9	80	16.7	2	4	90	0.00	30.276 
02:20	21.9	21.9	21.9	80	16.7	1	4	90	0.00	30.276 
02:25	22.1	22.1	22.1	80	16.9	1	3	90	0.00	30.276 
02:30	22.1	22.1	22.1	80	16.9	1	4	90	0.00	30.275 
02:35	22.1	22.1	22.1	80	16.9	1	6	90	0.00	30.275 
02:40	22.1	22.1	22.1	79	16.6	1	7	90	0.00	30.275 
02:45	21.9	21.9	21.9	80	16.7	1	4	90	0.00	30.274 
02:50	21.9	21.9	21.9	80	16.7	2	5	90	0.00	30.274 
02:55	21.9	21.9	21.9	80	16.7	2	5	90	0.00	30.274 
03:00	21.8	21.8	21.8	80	16.6	1	4	90	0.00	30.266 
03:05	21.8	21.8	21.8	80	16.6	1	4	90	0.00	30.266 
03:10	21.6	21.6	21.6	81	16.7	1	5	90	0.00	30.266 
03:15	21.6	21.6	21.6	81	16.7	1	5	90	0.00	30.272 
03:20	21.6	21.6	21.6	81	16.7	2	6	90	0.00	30.272 
03:25	21.4	21.4	21.4	81	16.5	2	5	112	0.00	30.272 
03:30	21.4	21.4	21.4	81	16.5	1	4	90	0.00	30.261 
03:35	21.4	21.4	21.4	81	16.5	2	6	90	0.00	30.261 
03:40	21.4	21.4	21.4	81	16.5	2	7	112	0.00	30.261 
03:45	21.4	21.4	21.4	81	16.5	1	4	90	0.00	30.260 
03:50	21.4	21.4	21.4	81	16.5	2	6	90	0.00	30.260 
03:55	21.4	21.4	21.4	81	16.5	1	7	90	0.00	30.260 
04:00	21.4	21.4	21.4	81	16.5	2	4	90	0.00	30.257 
04:05	21.4	21.4	21.4	81	16.5	1	9	90	0.00	30.257 
04:10	21.4	21.4	21.4	81	16.5	2	6	90	0.00	30.257 
04:15	21.4	21.4	21.4	81	16.5	1	7	90	0.00	30.247 
04:20	21.4	21.4	21.4	81	16.5	1	7	112	0.00	30.247 
04:25	21.4	21.4	21.4	81	16.5	1	3	90	0.00	30.247 
04:30	21.4	21.4	21.4	81	16.5	1	6	90	0.00	30.238 
04:35	21.4	21.4	21.4	81	16.5	2	5	112	0.00	30.238 
04:40	21.4	21.4	21.4	81	16.5	2	7	112	0.00	30.238 
04:45	21.4	21.4	21.4	81	16.5	2	6	112	0.00	30.230 
04:50	21.4	21.4	21.4	81	16.5	3	9	90	0.00	30.230 
04:55	21.6	21.6	21.6	81	16.7	2	7	90	0.00	30.230 
05:00	21.6	21.6	21.6	82	17.0	1	9	90	0.00	30.218 
05:05	21.6	21.6	21.6	82	17.0	3	6	112	0.00	30.218 
05:10	21.6	21.6	21.6	82	17.0	1	6	90	0.00	30.218 
05:15	21.6	21.6	21.6	82	17.0	1	5	112	0.00	30.221 
05:20	21.6	21.6	21.6	82	17.0	2	4	90	0.00	30.221 
05:25	21.8	21.8	21.8	82	17.2	2	7	90	0.00	30.221 
05:30	21.8	21.8	21.8	82	17.2	3	6	90	0.00	30.209 
05:35	21.8	21.8	21.8	82	17.2	1	5	90	0.00	30.209 
05:40	21.8	21.8	21.8	82	17.2	3	11	90	0.00	30.209 
05:45	21.8	21.8	21.8	82	17.2	2	5	90	0.00	30.199 
05:50	21.8	21.8	21.8	82	17.2	1	5	68	0.00	30.199 
05:55	21.8	21.8	21.8	82	17.2	2	6	112	0.00	30.199 
06:00	21.8	21.8	21.8	82	17.2	1	5	112	0.00	30.196 
06:05	21.8	21.8	21.8	82	17.2	2	7	90	0.00	30.196 
06:10	21.8	21.8	21.8	82	17.2	1	4	90	0.00	30.196 
06:15	21.8	21.8	21.8	82	17.2	1	5	90	0.00	30.196 
06:20	21.8	21.8	21.8	82	17.2	0	2	90	0.00	30.196 
06:25	21.8	21.8	21.8	82	17.2	1	4	68	0.00	30.196 
06:30	21.8	21.8	21.8	82	17.2	1	4	90	0.00	30.194 
06:35	21.8	21.8	21.8	82	17.2	0	1	90	0.00	30.194 
06:40	21.8	21.8	21.8	82	17.2	1	5	90	0.00	30.194 
06:45	21.8	21.8	21.8	82	17.2	0	2	90	0.00	30.196 
06:50	21.8	21.8	21.8	82	17.2	0	1	90	0.00	30.196 
06:55	21.8	21.8	21.8	82	17.2	0	1	90	0.00	30.196 
07:00	21.8	21.8	21.8	82	17.2	0	1	90	0.00	30.194 
07:05	21.8	21.8	21.8	83	17.4	0	2	90	0.00	30.194 
07:10	21.8	21.8	21.8	83	17.4	0	3	90	0.00	30.194 
07:15	21.8	21.8	21.8	83	17.4	0	2	90	0.00	30.190 
07:20	21.8	21.8	21.8	83	17.4	0	2	90	0.00	30.190 
07:25	21.8	21.8	21.8	83	17.4	0	1	90	0.00	30.190 
07:30	21.8	21.8	21.8	83	17.4	0	2	90	0.00	30.187 
07:35	21.8	21.8	21.8	83	17.4	0	3	68	0.00	30.187 
07:40	21.8	21.8	21.8	83	17.4	1	3	112	0.00	30.187 
07:45	21.8	21.8	21.8	83	17.4	1	3	112	0.00	30.179 
07:50	21.6	21.6	21.6	83	17.3	1	2	112	0.00	30.179 
07:55	21.6	21.6	21.6	83	17.3	0	2	112	0.00	30.179 
08:00	21.6	21.6	21.6	83	17.3	0	2	90	0.00	30.173 
08:05	21.6	21.6	21.6	83	17.3	1	3	90	0.00	30.173 
08:10	21.6	21.6	21.6	82	17.0	0	2	90	0.00	30.173 
08:15	21.6	21.6	21.6	82	17.0	0	2	90	0.00	30.171 
08:20	21.8	21.8	21.8	83	17.4	1	4	90	0.00	30.171 
08:25	21.8	21.8	21.8	83	17.4	1	4	90	0.00	30.171 
08:30	21.8	21.8	21.8	83	17.4	1	10	90	0.00	30.158 
08:35	21.8	21.8	21.8	83	17.4	1	5	112	0.00	30.158 
08:40	21.9	21.9	21.9	82	17.3	1	7	90	0.00	30.158 
08:45	21.9	21.9	21.9	82	17.3	2	7	90	0.00	30.150 
08:50	21.9	21.9	21.9	82	17.3	1	5	112	0.00	30.150 
08:55	21.9	21.9	21.9	82	17.3	2	5	90	0.00	30.150 
09:00	21.9	21.9	21.9	82	17.3	1	5	90	0.00	30.142 
09:05	21.9	21.9	21.9	82	17.3	1	5	90	0.00	30.142 
09:10	21.9	21.9	21.9	82	17.3	2	4	112	0.00	30.142 
09:15	21.9	21.9	21.9	82	17.3	1	7	90	0.00	30.123 
09:20	21.9	21.9	21.9	82	17.3	1	3	68	0.00	30.123 
09:25	21.9	21.9	21.9	82	17.3	3	11	90	0.00	30.123 
09:30	21.9	21.9	21.9	82	17.3	2	9	90	0.00	30.123 
09:35	21.9	21.9	21.9	82	17.3	3	10	112	0.00	30.123 
09:40	21.9	21.9	21.9	82	17.3	2	7	112	0.00	30.123 
09:45	21.9	21.9	21.9	83	17.5	2	7	90	0.00	30.118 
09:50	21.9	21.9	21.9	84	17.8	3	10	90	0.00	30.118 
09:55	21.9	21.9	21.9	84	17.8	2	6	68	0.00	30.118 
10:00	21.8	21.8	21.8	85	18.0	2	6	90	0.00	30.125 
10:05	21.9	21.9	21.9	86	18.4	2	5	90	0.00	30.125 
10:10	21.9	21.9	21.9	86	18.4	1	5	90	0.00	30.125 
10:15	21.9	21.9	21.9	87	18.6	1	7	90	0.00	30.117 
10:20	21.9	21.9	21.9	87	18.6	2	6	90	0.00	30.117 
10:25	22.1	22.1	22.1	87	18.8	1	5	90	0.00	30.117 
10:30	22.1	22.1	22.1	88	19.1	1	6	90	0.00	30.110 
10:35	22.2	22.2	22.2	88	19.2	1	5	112	0.00	30.110 
10:40	22.5	22.5	22.5	88	19.5	1	3	90	0.00	30.110 
10:45	22.5	22.5	22.5	87	19.2	2	5	90	0.00	30.106 
10:50	22.4	22.4	22.4	88	19.4	2	6	90	0.00	30.106 
10:55	22.4	22.4	22.4	88	19.4	2	4	90	0.00	30.106 
11:00	22.4	22.4	22.4	88	19.4	2	5	90	0.00	30.104 
11:05	22.5	22.5	22.5	88	19.5	2	5	90	0.00	30.104 
11:10	22.5	22.5	22.5	88	19.5	1	5	112	0.00	30.104 
11:15	22.7	22.7	22.7	88	19.7	0	3	112	0.00	30.087 
11:20	22.9	22.9	22.9	88	19.9	1	4	112	0.00	30.087 
11:25	22.9	22.9	22.9	88	19.9	1	3	68	0.00	30.087 
11:30	22.9	22.9	22.9	87	19.6	1	4	90	0.00	30.074 
11:35	23.0	23.0	23.0	88	20.0	0	2	45	0.00	30.074 
11:40	23.0	23.0	23.0	87	19.7	1	4	68	0.00	30.074 
11:45	23.0	23.0	23.0	87	19.7	0	3	90	0.00	30.061 
11:50	23.2	23.2	23.2	88	20.2	0	3	90	0.00	30.061 
11:55	23.2	23.2	23.2	88	20.2	0	3	90	0.00	30.061 
12:00	23.3	23.3	23.3	88	20.3	0	3	90	0.00	30.047 
12:05	23.3	23.3	23.3	88	20.3	0	2	90	0.00	30.047 
12:10	23.3	23.3	23.3	88	20.3	0	2	90	0.00	30.047 
12:15	23.3	23.3	23.3	88	20.3	0	1	0	0.00	30.035 
12:20	23.3	23.3	23.3	88	20.3	0	3	0	0.00	30.035 
12:25	23.3	23.3	23.3	88	20.3	0	2	45	0.00	30.035 
12:30	23.3	23.3	23.3	88	20.3	0	3	45	0.00	30.026 
12:35	23.5	23.5	23.5	88	20.5	0	3	135	0.00	30.026 
12:40	23.5	23.5	23.5	88	20.5	0	1	135	0.00	30.026 
12:45	23.5	23.5	23.5	88	20.5	0	2	90	0.00	30.013 
12:50	23.5	23.5	23.5	88	20.5	0	2	90	0.00	30.013 
12:55	23.5	23.5	23.5	88	20.5	0	0	---	0.00	30.013 
13:00	23.6	23.6	23.6	88	20.6	0	1	90	0.00	30.003 
13:05	23.6	23.6	23.6	88	20.6	0	1	90	0.00	30.003 
13:10	23.8	23.8	23.8	88	20.8	0	2	90	0.00	30.003 
13:15	23.8	23.8	23.8	88	20.8	0	2	90	0.00	29.993 
13:20	23.8	23.8	23.8	88	20.8	0	1	90	0.00	29.993 
13:25	23.8	23.8	23.8	88	20.8	0	1	90	0.00	29.993 
13:30	23.9	23.9	23.9	88	20.9	0	2	90	0.00	29.990 
13:35	23.9	23.9	23.9	88	20.9	0	0	---	0.00	29.990 
13:40	24.1	24.1	24.1	88	21.1	0	1	90	0.00	29.990 
13:45	24.2	24.2	24.2	88	21.2	0	1	90	0.00	29.981 
13:50	24.2	24.2	24.2	88	21.2	0	0	---	0.00	29.981 
13:55	24.4	24.4	24.4	88	21.4	0	0	---	0.00	29.981 
14:00	24.5	24.5	24.5	88	21.5	0	0	---	0.00	29.976 
14:05	24.5	24.5	24.5	87	21.2	0	1	90	0.00	29.976 
14:10	24.5	24.5	24.5	87	21.2	0	0	---	0.00	29.976 
14:15	24.5	24.5	24.5	87	21.2	0	0	---	0.00	29.972 
14:20	24.7	24.7	24.7	87	21.4	0	1	90	0.00	29.972 
14:25	24.7	24.7	24.7	87	21.4	0	1	90	0.00	29.972 
14:30	24.7	24.7	24.7	87	21.4	0	1	90	0.00	29.972 
14:35	24.8	24.8	24.8	87	21.5	0	1	90	0.00	29.972 
14:40	24.7	24.7	24.7	86	21.1	0	1	90	0.00	29.972 
14:45	24.7	24.7	24.7	86	21.1	0	2	90	0.00	29.974 
14:50	24.7	24.7	24.7	86	21.1	0	0	---	0.00	29.974 
14:55	24.7	24.7	24.7	86	21.1	0	0	---	0.00	29.974 
15:00	24.7	24.7	24.7	86	21.1	0	1	90	0.00	29.973 
15:05	24.7	24.7	24.7	86	21.1	0	0	---	0.00	29.973 
15:10	24.7	24.7	24.7	86	21.1	0	0	---	0.00	29.973 
15:15	24.5	24.5	24.5	85	20.6	0	1	90	0.00	29.974 
15:20	24.5	24.5	24.5	85	20.6	0	0	---	0.00	29.974 
15:25	24.5	24.5	24.5	86	20.9	0	0	---	0.00	29.974 
15:30	24.7	24.7	24.7	86	21.1	0	0	---	0.00	29.976 
15:35	24.7	24.7	24.7	86	21.1	0	0	---	0.00	29.976 
15:40	24.7	24.7	24.7	86	21.1	0	0	---	0.00	29.976 
15:45	24.7	24.7	24.7	86	21.1	0	1	90	0.00	29.978 
15:50	24.7	24.7	24.7	86	21.1	0	0	---	0.00	29.978 
15:55	24.7	24.7	24.7	86	21.1	0	0	---	0.00	29.978 
16:00	24.5	24.5	24.5	86	20.9	0	1	90	0.00	29.977 
16:05	24.4	24.4	24.4	87	21.1	0	1	90	0.00	29.977 
16:10	24.4	24.4	24.4	87	21.1	0	0	---	0.00	29.977 
16:15	24.4	24.4	24.4	87	21.1	0	1	90	0.00	29.979 
16:20	24.4	24.4	24.4	87	21.1	0	1	90	0.00	29.979 
16:25	24.2	24.2	24.2	87	20.9	0	0	---	0.00	29.979 
16:30	24.2	24.2	24.2	87	20.9	0	0	---	0.00	29.978 
16:35	24.2	24.2	24.2	88	21.2	0	1	90	0.00	29.978 
16:40	24.2	24.2	24.2	88	21.2	0	0	---	0.00	29.978 
16:45	24.1	24.1	24.1	88	21.1	0	2	90	0.00	29.981 
16:50	24.1	24.1	24.1	88	21.1	0	1	90	0.00	29.981 
16:55	24.1	24.1	24.1	88	21.1	0	1	90	0.00	29.981 
17:00	24.1	24.1	24.1	88	21.1	0	2	90	0.00	29.984 
17:05	23.9	23.9	23.9	88	20.9	0	2	315	0.00	29.984 
17:10	23.6	23.6	23.6	88	20.6	0	2	292	0.00	29.984 
17:15	23.5	23.5	23.5	88	20.5	0	2	292	0.00	29.987 
17:20	23.3	23.3	23.3	88	20.3	0	2	292	0.00	29.987 
17:25	23.3	23.3	23.3	88	20.3	0	2	22	0.00	29.987 
17:30	23.2	23.2	23.2	88	20.2	0	1	338	0.00	29.993 
17:35	23.2	23.2	23.2	88	20.2	0	1	338	0.00	29.993 
17:40	23.2	23.2	23.2	88	20.2	0	2	338	0.00	29.993 
17:45	23.2	23.2	23.2	88	20.2	0	2	270	0.00	29.994 
17:50	23.0	23.0	23.0	88	20.0	0	1	292	0.00	29.994 
17:55	23.0	23.0	23.0	88	20.0	0	1	292	0.00	29.994 
18:00	23.0	23.0	23.0	88	20.0	0	1	292	0.00	29.995 
18:05	22.9	22.9	22.9	89	20.2	0	1	292	0.00	29.995 
18:10	22.9	22.9	22.9	89	20.2	0	1	292	0.00	29.995 
18:15	22.9	22.9	22.9	89	20.2	0	1	292	0.00	29.997 
18:20	23.0	23.0	23.0	89	20.3	0	2	292	0.00	29.997 
18:25	22.9	22.9	22.9	89	20.2	0	2	292	0.00	29.997 
18:30	22.9	22.9	22.9	89	20.2	1	2	292	0.00	29.999 
18:35	22.9	22.9	22.9	89	20.2	0	2	292	0.00	29.999 
18:40	22.9	22.9	22.9	89	20.2	1	3	248	0.00	29.999 
18:45	22.9	22.9	22.9	89	20.2	0	2	338	0.00	30.002 
18:50	22.9	22.9	22.9	89	20.2	0	2	292	0.00	30.002 
18:55	22.9	22.9	22.9	89	20.2	1	2	292	0.00	30.002 
19:00	22.7	22.7	22.7	89	20.0	1	2	270	0.00	30.007 
19:05	22.7	22.7	22.7	89	20.0	0	2	292	0.00	30.007 
19:10	22.7	22.7	22.7	89	20.0	0	1	292	0.00	30.007 
19:15	22.7	22.7	22.7	89	20.0	1	3	248	0.00	30.009 
19:20	22.7	22.7	22.7	89	20.0	1	2	270	0.00	30.009 
19:25	22.5	22.5	22.5	89	19.8	0	2	270	0.00	30.009 
19:30	22.5	22.5	22.5	89	19.8	1	2	270	0.00	30.010 
19:35	22.5	22.5	22.5	89	19.8	0	2	270	0.00	30.010 
19:40	22.5	22.5	22.5	89	19.8	1	3	270	0.00	30.010 
19:45	22.5	22.5	22.5	89	19.8	1	3	248	0.00	30.009 
19:50	22.5	22.5	22.5	89	19.8	1	3	270	0.00	30.009 
19:55	22.5	22.5	22.5	89	19.8	1	4	225	0.00	30.009 
20:00	22.5	22.5	22.5	89	19.8	1	4	225	0.00	30.010 
20:05	22.5	22.5	22.5	89	19.8	0	2	315	0.00	30.010 
20:10	22.4	22.4	22.4	89	19.7	1	2	270	0.00	30.010 
20:15	22.4	22.4	22.4	89	19.7	1	3	270	0.00	30.011 
20:20	22.4	22.4	22.4	89	19.7	1	3	270	0.00	30.011 
20:25	22.4	22.4	22.4	89	19.7	1	3	338	0.00	30.011 
20:30	22.4	22.4	22.4	89	19.7	1	3	315	0.00	30.011 
20:35	22.4	22.4	22.4	89	19.7	0	2	315	0.00	30.011 
20:40	22.4	22.4	22.4	89	19.7	1	2	315	0.00	30.011 
20:45	22.4	22.4	22.4	89	19.7	1	3	292	0.00	30.012 
20:50	22.4	22.4	22.4	89	19.7	1	2	270	0.00	30.012 
20:55	22.4	22.4	22.4	89	19.7	1	2	270	0.00	30.012 
21:00	22.4	22.4	22.4	89	19.7	1	2	270	0.00	30.016 
21:05	22.4	22.4	22.4	89	19.7	0	2	270	0.00	30.016 
21:10	22.4	22.4	22.4	89	19.7	1	2	270	0.00	30.016 
21:15	22.4	22.4	22.4	89	19.7	1	2	270	0.00	30.015 
21:20	22.4	22.4	22.4	89	19.7	1	2	270	0.00	30.015 
21:25	22.4	22.4	22.4	89	19.7	0	2	315	0.00	30.015 
21:30	22.4	22.4	22.4	89	19.7	1	2	315	0.00	30.016 
21:35	22.5	22.5	22.5	89	19.8	1	3	270	0.00	30.016 
21:40	22.5	22.5	22.5	89	19.8	1	3	270	0.00	30.016 
21:45	22.5	22.5	22.5	89	19.8	1	2	338	0.00	30.018 
21:50	22.4	22.4	22.4	89	19.7	1	3	248	0.00	30.018 
21:55	22.4	22.4	22.4	89	19.7	1	2	248	0.00	30.018 
22:00	22.4	22.4	22.4	89	19.7	1	2	248	0.00	30.018 
22:05	22.5	22.5	22.5	89	19.8	1	3	248	0.00	30.018 
22:10	22.5	22.5	22.5	89	19.8	1	2	315	0.00	30.018 
22:15	22.5	22.5	22.5	89	19.8	1	3	248	0.00	30.021 
22:20	22.5	22.5	22.5	89	19.8	1	3	270	0.00	30.021 
22:25	22.5	22.5	22.5	89	19.8	1	3	270	0.00	30.021 
22:30	22.5	22.5	22.5	89	19.8	1	3	270	0.00	30.023 
22:35	22.5	22.5	22.5	89	19.8	1	2	270	0.00	30.023 
22:40	22.5	22.5	22.5	89	19.8	1	2	270	0.00	30.023 
22:45	22.5	22.5	22.5	89	19.8	1	3	248	0.00	30.024 
22:50	22.5	22.5	22.5	89	19.8	1	3	248	0.00	30.024 
22:55	22.5	22.5	22.5	89	19.8	1	3	248	0.00	30.024 
23:00	22.5	22.5	22.5	89	19.8	1	2	248	0.00	30.026 
23:05	22.5	22.5	22.5	89	19.8	1	2	248	0.00	30.026 
23:10	22.4	22.4	22.4	89	19.7	1	3	248	0.00	30.026 
23:15	22.4	22.4	22.4	89	19.7	1	3	248	0.00	30.027 
23:20	22.4	22.4	22.4	89	19.7	1	3	248	0.00	30.027 
23:25	22.4	22.4	22.4	89	19.7	0	2	315	0.00	30.027 
23:30	22.4	22.4	22.4	89	19.7	1	2	315	0.00	30.029 
23:35	22.4	22.4	22.4	89	19.7	1	2	315	0.00	30.029 
23:40	22.5	22.5	22.5	89	19.8	1	3	248	0.00	30.029 
23:45	22.5	22.5	22.5	89	19.8	0	2	248	0.00	30.030 
23:50	22.5	22.5	22.5	89	19.8	1	3	270	0.00	30.030 
23:55	22.7	22.7	22.7	89	20.0	1	3	248	0.00	30.030 

CoCoRaHS
IN-AL-39
A2 Web Hosting
Creative Commons License
GoDaddy
search engine by freefind advanced

loaded 2018-11-20 09:26:10 • last modified 2010-11-18 10:43:29
Privacy PolicyDisclaimer
• wx.awcolley.com is powered by PmWiki v.2002016 •
• all content (unless otherwise noted) © 2018 A W Colley